createdAt,value
2019-05-13T00:01:26.937Z,18.60
2019-05-13T00:03:55.742Z,15.87
2019-05-13T00:06:24.327Z,22.02
2019-05-13T00:08:54.332Z,17.23
2019-05-13T00:11:23.980Z,14.15
2019-05-13T00:13:53.741Z,13.28
2019-05-13T00:16:23.470Z,11.88
2019-05-13T00:18:53.490Z,14.93
2019-05-13T00:21:23.208Z,13.80
2019-05-13T00:23:53.459Z,17.25
2019-05-13T00:26:24.316Z,18.70
2019-05-13T00:28:53.447Z,16.70
2019-05-13T00:31:24.101Z,13.43
2019-05-13T00:33:53.253Z,10.85
2019-05-13T00:38:49.907Z,22.75
2019-05-13T00:41:18.728Z,18.30
2019-05-13T00:43:47.254Z,19.45
2019-05-13T00:46:15.855Z,11.97
2019-05-13T00:48:44.440Z,17.85
2019-05-13T00:51:14.154Z,20.55
2019-05-13T00:53:44.174Z,19.87
2019-05-13T00:56:13.401Z,16.17
2019-05-13T00:58:43.747Z,18.05
2019-05-13T01:01:13.928Z,12.23
2019-05-13T01:03:44.195Z,12.40
2019-05-13T01:06:13.342Z,20.55
2019-05-13T01:08:44.109Z,15.23
2019-05-13T01:11:13.303Z,12.37
2019-05-13T01:13:43.392Z,20.37
2019-05-13T01:16:14.065Z,17.85
2019-05-13T01:18:43.225Z,16.77
2019-05-13T01:21:13.295Z,12.33
2019-05-13T01:23:43.875Z,18.00
2019-05-13T01:26:14.133Z,16.40
2019-05-13T01:28:43.597Z,13.03
2019-05-13T01:31:13.242Z,20.60
2019-05-13T01:33:44.328Z,14.55
2019-05-13T01:36:13.375Z,25.05
2019-05-13T01:38:43.565Z,22.50
2019-05-13T01:41:13.635Z,18.57
2019-05-13T01:43:44.092Z,23.15
2019-05-13T01:46:13.474Z,20.50
2019-05-13T01:53:39.411Z,22.82
2019-05-13T01:56:08.089Z,23.87
2019-05-13T01:58:36.685Z,18.85
2019-05-13T02:01:05.438Z,17.60
2019-05-13T02:03:34.367Z,21.00
2019-05-13T02:06:03.841Z,18.57
2019-05-13T02:08:33.742Z,15.93
2019-05-13T02:11:04.352Z,15.83
2019-05-13T02:13:34.313Z,15.88
2019-05-13T02:16:04.157Z,16.67
2019-05-13T02:18:34.158Z,12.93
2019-05-13T02:21:05.190Z,15.03
2019-05-13T02:23:34.089Z,15.60
2019-05-13T02:26:04.434Z,14.87
2019-05-13T02:28:33.506Z,15.78
2019-05-13T02:31:02.458Z,22.82
2019-05-13T02:33:33.901Z,16.93
2019-05-13T02:36:02.906Z,25.12
2019-05-13T02:38:35.406Z,23.55
2019-05-13T02:41:02.867Z,25.43
2019-05-13T02:43:33.317Z,21.87
2019-05-13T02:46:04.139Z,21.33
2019-05-13T02:48:33.702Z,22.30
2019-05-13T02:51:03.777Z,17.85
2019-05-13T02:53:33.653Z,19.62
2019-05-13T02:56:03.327Z,24.65
2019-05-13T02:58:33.420Z,15.43
2019-05-13T03:01:03.322Z,13.03
2019-05-13T03:03:32.926Z,20.02
2019-05-13T03:06:02.885Z,44.48
2019-05-13T03:08:41.191Z,25.65
2019-05-13T03:11:03.062Z,12.98
2019-05-13T03:13:32.865Z,15.63
2019-05-13T03:16:18.422Z,16.05
2019-05-13T03:18:47.077Z,17.77
2019-05-13T03:21:15.771Z,25.00
2019-05-13T03:23:44.666Z,14.58
2019-05-13T03:26:13.644Z,17.02
2019-05-13T03:28:43.534Z,16.77
2019-05-13T03:31:16.830Z,12.40
2019-05-13T03:33:46.429Z,17.35
2019-05-13T03:36:16.169Z,32.28
2019-05-13T03:38:59.864Z,17.70
2019-05-13T03:41:17.510Z,20.12
2019-05-13T03:43:47.506Z,10.50
2019-05-13T03:46:18.310Z,15.98
2019-05-13T03:48:52.944Z,20.50
2019-05-13T03:51:22.184Z,13.65
2019-05-13T03:53:53.459Z,11.40
2019-05-13T03:56:23.540Z,19.65
2019-05-13T03:58:53.687Z,17.98
2019-05-13T04:01:22.855Z,19.02
2019-05-13T04:03:52.760Z,18.92
2019-05-13T04:06:23.377Z,17.12
2019-05-13T04:08:53.894Z,13.80
2019-05-13T04:11:23.296Z,14.70
2019-05-13T04:16:23.829Z,14.85
2019-05-13T04:18:53.673Z,33.95
2019-05-13T04:21:22.889Z,11.70
2019-05-13T04:23:53.242Z,34.80
2019-05-13T04:26:23.649Z,18.65
2019-05-13T04:28:53.037Z,25.65
2019-05-13T04:31:22.738Z,36.68
2019-05-13T04:33:53.086Z,13.70
2019-05-13T04:36:23.677Z,29.10
2019-05-13T04:38:53.065Z,21.85
2019-05-13T04:43:54.178Z,37.08
2019-05-13T04:46:22.979Z,32.50
2019-05-13T04:48:53.048Z,27.67
2019-05-13T04:51:22.850Z,50.98
2019-05-13T04:53:56.072Z,26.17
2019-05-13T04:56:22.532Z,70.97
2019-05-13T04:58:52.824Z,35.08
2019-05-13T05:01:40.144Z,27.10
2019-05-13T05:04:28.709Z,38.60
2019-05-13T05:06:54.866Z,31.62
2019-05-13T05:10:13.057Z,34.95
2019-05-13T05:12:37.840Z,30.45
2019-05-13T05:15:27.493Z,7.80
2019-05-13T05:18:22.290Z,23.65
2019-05-13T05:21:06.223Z,17.82
2019-05-13T05:23:42.277Z,42.00
2019-05-13T05:26:52.178Z,30.00
2019-05-13T05:29:47.375Z,67.17
2019-05-13T05:32:21.275Z,17.77
2019-05-13T05:35:11.656Z,16.23
2019-05-13T05:37:54.109Z,22.80
2019-05-13T05:40:31.487Z,24.10
2019-05-13T05:42:56.498Z,17.50
2019-05-13T05:45:25.243Z,22.40
2019-05-13T05:47:55.542Z,28.85
2019-05-13T05:50:24.257Z,26.52
2019-05-13T05:52:54.035Z,62.90
2019-05-13T05:55:25.735Z,20.10
2019-05-13T05:57:56.335Z,23.52
2019-05-13T06:00:25.016Z,27.70
2019-05-13T06:02:56.270Z,18.50
2019-05-13T06:05:26.482Z,69.92
2019-05-13T06:07:55.213Z,29.85
2019-05-13T06:10:23.836Z,14.50
2019-05-13T06:12:54.004Z,9.28
2019-05-13T06:15:22.693Z,43.15
2019-05-13T06:17:51.852Z,14.78
2019-05-13T06:20:21.137Z,32.30
2019-05-13T06:22:51.559Z,14.78
2019-05-13T06:25:23.441Z,17.92
2019-05-13T06:27:51.338Z,20.88
2019-05-13T06:30:21.805Z,31.12
2019-05-13T06:32:52.457Z,32.03
2019-05-13T06:35:21.856Z,18.25
2019-05-13T06:37:52.035Z,16.42
2019-05-13T06:40:21.514Z,18.75
2019-05-13T06:42:52.156Z,19.98
2019-05-13T06:45:21.604Z,20.88
2019-05-13T06:47:52.123Z,14.80
2019-05-13T06:50:21.888Z,23.83
2019-05-13T06:52:51.353Z,13.53
2019-05-13T06:57:51.750Z,15.83
2019-05-13T07:00:21.536Z,9.70
2019-05-13T07:02:51.780Z,8.08
2019-05-13T07:05:22.638Z,12.78
2019-05-13T07:07:51.377Z,17.12
2019-05-13T07:10:21.677Z,15.83
2019-05-13T07:12:51.912Z,13.72
2019-05-13T07:15:22.456Z,16.45
2019-05-13T07:17:52.075Z,14.28
2019-05-13T07:20:22.638Z,14.33
2019-05-13T07:22:53.184Z,10.35
2019-05-13T07:25:22.281Z,13.00
2019-05-13T07:30:32.223Z,21.02
2019-05-13T07:33:01.733Z,16.62
2019-05-13T07:35:32.200Z,18.52
2019-05-13T07:38:02.197Z,20.02
2019-05-13T07:40:32.180Z,18.17
2019-05-13T07:43:01.709Z,23.18
2019-05-13T07:45:31.634Z,22.00
2019-05-13T07:48:01.396Z,29.80
2019-05-13T07:50:32.215Z,29.57
2019-05-13T07:53:02.238Z,29.25
2019-05-13T07:55:31.646Z,26.02
2019-05-13T07:58:02.083Z,34.85
2019-05-13T08:00:32.576Z,31.75
2019-05-13T08:03:01.531Z,41.15
2019-05-13T08:05:31.427Z,36.35
2019-05-13T08:08:02.262Z,35.68
2019-05-13T08:10:32.008Z,36.85
2019-05-13T08:13:02.315Z,37.63
2019-05-13T08:15:31.739Z,41.83
2019-05-13T08:18:02.012Z,32.88
2019-05-13T08:20:32.768Z,36.03
2019-05-13T08:23:02.718Z,47.90
2019-05-13T08:25:31.670Z,50.30
2019-05-13T08:28:02.086Z,46.60
2019-05-13T08:30:31.843Z,59.18
2019-05-13T08:33:01.772Z,56.40
2019-05-13T08:35:31.450Z,54.70
2019-05-13T08:43:01.385Z,41.28
2019-05-13T08:45:31.534Z,34.60
2019-05-13T08:48:02.031Z,37.48
2019-05-13T08:50:32.352Z,40.73
2019-05-13T08:53:01.796Z,35.98
2019-05-13T08:55:32.152Z,26.07
2019-05-13T08:58:01.915Z,38.55
2019-05-13T09:00:36.878Z,43.10
2019-05-13T09:03:06.371Z,28.17
2019-05-13T09:05:35.026Z,31.50
2019-05-13T09:08:03.827Z,23.40
2019-05-13T09:10:32.402Z,25.75
2019-05-13T09:13:01.902Z,26.70
2019-05-13T09:15:31.635Z,21.93
2019-05-13T09:18:02.325Z,19.00
2019-05-13T09:20:32.330Z,21.57
2019-05-13T09:23:02.076Z,31.35
2019-05-13T09:25:32.087Z,29.85
2019-05-13T09:28:02.653Z,36.08
2019-05-13T09:30:31.603Z,34.23
2019-05-13T09:38:03.027Z,30.52
2019-05-13T09:40:31.406Z,23.30
2019-05-13T09:43:02.376Z,30.60
2019-05-13T09:45:32.160Z,37.13
2019-05-13T09:48:01.629Z,32.67
2019-05-13T09:50:35.788Z,38.42
2019-05-13T09:53:02.722Z,30.23
2019-05-13T09:55:32.505Z,30.90
2019-05-13T09:58:02.466Z,29.42
2019-05-13T10:00:32.310Z,37.48
2019-05-13T10:03:02.196Z,55.60
2019-05-13T10:05:31.692Z,37.50
2019-05-13T10:13:09.222Z,27.62
2019-05-13T10:15:27.901Z,30.20
2019-05-13T10:17:56.601Z,32.08
2019-05-13T10:20:42.068Z,31.55
2019-05-13T10:23:12.608Z,22.00
2019-05-13T10:25:42.410Z,24.32
2019-05-13T10:30:39.021Z,28.02
2019-05-13T10:33:08.158Z,23.57
2019-05-13T10:35:37.831Z,29.80
2019-05-13T10:38:06.662Z,31.42
2019-05-13T10:40:35.250Z,30.57
2019-05-13T10:43:03.953Z,34.48
2019-05-13T10:45:33.361Z,27.93
2019-05-13T10:53:02.699Z,28.40
2019-05-13T10:55:32.452Z,31.35
2019-05-13T10:58:02.422Z,30.77
2019-05-13T11:00:43.106Z,31.62
2019-05-13T11:03:12.286Z,24.25
2019-05-13T11:08:10.999Z,31.60
2019-05-13T11:10:41.922Z,35.55
2019-05-13T11:13:10.762Z,27.13
2019-05-13T11:15:45.376Z,21.93
2019-05-13T11:18:19.007Z,18.10
2019-05-13T11:20:42.005Z,23.92
2019-05-13T11:23:12.432Z,22.02
2019-05-13T11:25:41.589Z,25.62
2019-05-13T11:30:42.322Z,24.57
2019-05-13T11:33:10.434Z,26.33
2019-05-13T11:35:41.054Z,22.02
2019-05-13T11:38:11.764Z,20.02
2019-05-13T11:40:39.674Z,13.53
2019-05-13T11:43:08.306Z,20.70
2019-05-13T11:45:36.989Z,21.27
2019-05-13T11:48:05.742Z,22.58
2019-05-13T11:50:34.669Z,21.23
2019-05-13T11:53:10.761Z,20.15
2019-05-13T11:55:33.542Z,21.15
2019-05-13T11:58:02.925Z,16.60
2019-05-13T12:00:46.371Z,12.35
2019-05-13T12:03:15.350Z,13.40
2019-05-13T12:05:44.505Z,25.50
2019-05-13T12:08:13.175Z,24.37
2019-05-13T12:10:43.926Z,23.22
2019-05-13T12:13:12.666Z,23.50
2019-05-13T12:25:37.799Z,21.68
2019-05-13T12:28:06.454Z,24.23
2019-05-13T12:30:35.205Z,24.18
2019-05-13T12:33:04.376Z,25.20
2019-05-13T12:35:33.234Z,22.55
2019-05-13T12:38:01.838Z,35.00
2019-05-13T12:40:33.679Z,32.55
2019-05-13T12:43:02.083Z,29.85
2019-05-13T12:45:30.836Z,27.13
2019-05-13T12:48:02.967Z,45.43
2019-05-13T12:50:32.321Z,23.83
2019-05-13T12:53:02.758Z,21.45
2019-05-13T12:55:33.157Z,25.52
2019-05-13T12:58:02.772Z,24.52
2019-05-13T13:00:32.909Z,18.00
2019-05-13T13:03:02.235Z,20.40
2019-05-13T13:05:36.236Z,18.48
2019-05-13T13:08:17.056Z,16.80
2019-05-13T13:10:34.562Z,20.48
2019-05-13T13:13:02.324Z,26.95
2019-05-13T13:15:38.244Z,23.40
2019-05-13T13:18:02.515Z,17.27
2019-05-13T13:20:33.448Z,17.15
2019-05-13T13:23:04.294Z,18.07
2019-05-13T13:25:33.900Z,33.65
2019-05-13T13:28:11.415Z,17.60
2019-05-13T13:30:35.183Z,21.55
2019-05-13T13:33:03.078Z,16.27
2019-05-13T13:35:33.861Z,28.47
2019-05-13T13:38:04.228Z,28.77
2019-05-13T13:40:35.262Z,32.70
2019-05-13T13:43:05.347Z,23.55
2019-05-13T13:45:52.111Z,27.17
2019-05-13T13:48:04.219Z,30.25
2019-05-13T13:50:33.733Z,24.20
2019-05-13T13:55:32.066Z,18.73
2019-05-13T13:58:02.356Z,17.40
2019-05-13T14:00:40.636Z,18.07
2019-05-13T14:03:06.352Z,20.02
2019-05-13T14:05:36.250Z,23.35
2019-05-13T14:08:02.159Z,13.30
2019-05-13T14:10:31.846Z,19.52
2019-05-13T14:13:04.566Z,12.45
2019-05-13T14:15:34.209Z,15.98
2019-05-13T14:18:01.490Z,16.15
2019-05-13T14:20:32.536Z,17.62
2019-05-13T14:23:02.762Z,17.12
2019-05-13T14:25:32.487Z,19.42
2019-05-13T14:28:00.889Z,21.90
2019-05-13T14:30:31.280Z,21.75
2019-05-13T14:33:02.195Z,15.00
2019-05-13T14:35:30.215Z,20.32
2019-05-13T14:37:58.877Z,15.78
2019-05-13T14:40:27.670Z,17.65
2019-05-13T14:42:56.645Z,10.38
2019-05-13T14:45:25.719Z,13.30
2019-05-13T14:47:54.258Z,15.50
2019-05-13T14:50:22.948Z,14.43
2019-05-13T14:52:52.356Z,12.35
2019-05-13T14:55:21.504Z,13.22
2019-05-13T14:57:52.423Z,14.98
2019-05-13T15:00:22.048Z,15.65
2019-05-13T15:02:51.794Z,19.40
2019-05-13T15:05:22.022Z,18.30
2019-05-13T15:07:52.845Z,16.65
2019-05-13T15:10:21.930Z,12.28
2019-05-13T15:12:52.391Z,18.07
2019-05-13T15:15:22.374Z,13.15
2019-05-13T15:17:51.888Z,11.08
2019-05-13T15:20:21.739Z,9.38
2019-05-13T15:22:51.878Z,10.88
2019-05-13T15:25:22.069Z,8.58
2019-05-13T15:27:52.805Z,11.97
2019-05-13T15:30:22.079Z,12.18
2019-05-13T15:32:52.618Z,10.20
2019-05-13T15:35:21.102Z,10.30
2019-05-13T15:37:52.098Z,7.15
2019-05-13T15:40:21.965Z,6.78
2019-05-13T15:42:51.771Z,8.53
2019-05-13T15:45:21.309Z,10.30
2019-05-13T15:47:51.628Z,9.90
2019-05-13T15:50:21.439Z,7.03
2019-05-13T15:52:50.247Z,10.60
2019-05-13T15:55:21.228Z,9.40
2019-05-13T15:57:51.630Z,6.85
2019-05-13T16:00:21.962Z,11.93
2019-05-13T16:02:52.287Z,8.08
2019-05-13T16:05:20.304Z,7.72
2019-05-13T16:07:48.890Z,6.80
2019-05-13T16:10:17.983Z,9.20
2019-05-13T16:12:46.641Z,6.33
2019-05-13T16:15:15.961Z,5.65
2019-05-13T16:20:14.471Z,7.47
2019-05-13T16:22:43.117Z,6.95
2019-05-13T16:25:13.826Z,7.20
2019-05-13T16:27:42.542Z,9.95
2019-05-13T16:30:12.008Z,6.65
2019-05-13T16:32:42.436Z,11.03
2019-05-13T16:35:13.391Z,6.40
2019-05-13T16:37:41.999Z,8.75
2019-05-13T16:40:12.467Z,11.75
2019-05-13T16:42:42.189Z,6.25
2019-05-13T16:45:12.608Z,5.87
2019-05-13T16:47:56.282Z,7.28
2019-05-13T16:50:12.374Z,3.50
2019-05-13T16:52:41.797Z,6.08
2019-05-13T16:55:12.865Z,6.22
2019-05-13T16:57:42.351Z,8.28
2019-05-13T17:00:11.839Z,4.55
2019-05-13T17:02:42.100Z,6.17
2019-05-13T17:05:12.005Z,9.18
2019-05-13T17:07:42.253Z,5.90
2019-05-13T17:10:12.895Z,9.05
2019-05-13T17:12:43.018Z,7.47
2019-05-13T17:15:12.294Z,5.28
2019-05-13T17:17:41.113Z,9.08
2019-05-13T17:20:12.513Z,7.12
2019-05-13T17:22:42.334Z,9.05
2019-05-13T17:25:12.684Z,9.18
2019-05-13T17:27:41.077Z,10.65
2019-05-13T17:30:11.501Z,8.20
2019-05-13T17:32:40.335Z,9.75
2019-05-13T17:35:11.611Z,6.27
2019-05-13T17:37:42.036Z,8.35
2019-05-13T17:40:11.879Z,13.40
2019-05-13T17:42:41.583Z,8.00
2019-05-13T17:45:11.253Z,9.10
2019-05-13T17:47:41.854Z,10.63
2019-05-13T17:50:12.026Z,11.88
2019-05-13T17:52:40.852Z,8.65
2019-05-13T17:55:11.746Z,13.13
2019-05-13T17:57:41.442Z,7.60
2019-05-13T18:00:11.126Z,12.60
2019-05-13T18:02:41.840Z,7.87
2019-05-13T18:05:11.969Z,7.67
2019-05-13T18:07:42.005Z,8.70
2019-05-13T18:10:11.997Z,10.98
2019-05-13T18:12:41.749Z,6.87
2019-05-13T18:17:41.845Z,4.22
2019-05-13T18:20:10.869Z,5.45
2019-05-13T18:22:41.782Z,6.35
2019-05-13T18:25:12.010Z,9.88
2019-05-13T18:27:41.580Z,6.95
2019-05-13T18:30:11.598Z,9.85
2019-05-13T18:32:40.307Z,6.85
2019-05-13T18:35:09.316Z,6.25
2019-05-13T18:37:37.915Z,12.50
2019-05-13T18:40:07.037Z,8.85
2019-05-13T18:42:35.622Z,7.75
2019-05-13T18:45:08.578Z,4.13
2019-05-13T18:47:37.264Z,6.55
2019-05-13T18:50:07.066Z,7.35
2019-05-13T18:52:35.725Z,9.78
2019-05-13T18:55:06.186Z,12.58
2019-05-13T18:57:34.830Z,9.78
2019-05-13T19:00:04.957Z,9.75
2019-05-13T19:02:33.617Z,14.55
2019-05-13T19:05:02.454Z,10.82
2019-05-13T19:07:31.535Z,18.45
2019-05-13T19:12:28.287Z,18.20
2019-05-13T19:14:56.936Z,7.10
2019-05-13T19:17:25.565Z,12.53
2019-05-13T19:19:54.145Z,6.70
2019-05-13T19:22:22.746Z,10.43
2019-05-13T19:24:51.804Z,14.65
2019-05-13T19:27:21.564Z,9.75
2019-05-13T19:29:52.417Z,5.95
2019-05-13T19:32:21.896Z,7.25
2019-05-13T19:34:51.651Z,9.60
2019-05-13T19:37:22.427Z,6.72
2019-05-13T19:39:50.784Z,6.05
2019-05-13T19:42:22.164Z,9.83
2019-05-13T19:44:51.188Z,7.03
2019-05-13T19:47:19.958Z,6.15
2019-05-13T19:49:48.719Z,6.30
2019-05-13T19:52:17.266Z,7.65
2019-05-13T19:54:45.889Z,7.42
2019-05-13T19:57:14.478Z,6.25
2019-05-13T19:59:43.087Z,7.40
2019-05-13T20:02:12.353Z,8.33
2019-05-13T20:04:41.424Z,6.08
2019-05-13T20:07:11.889Z,8.00
2019-05-13T20:09:42.615Z,11.12
2019-05-13T20:12:11.300Z,5.08
2019-05-13T20:14:40.296Z,6.20
2019-05-13T20:17:08.889Z,5.87
2019-05-13T20:19:47.660Z,14.00
2019-05-13T20:22:08.173Z,15.35
2019-05-13T20:24:36.712Z,6.97
2019-05-13T20:27:05.437Z,5.90
2019-05-13T20:29:34.045Z,9.00
2019-05-13T20:32:02.838Z,12.55
2019-05-13T20:34:31.945Z,8.60
2019-05-13T20:37:02.042Z,6.22
2019-05-13T20:39:31.979Z,15.68
2019-05-13T20:42:01.583Z,8.78
2019-05-13T20:44:31.303Z,6.60
2019-05-13T20:47:01.576Z,6.50
2019-05-13T20:49:31.212Z,10.53
2019-05-13T20:52:00.119Z,8.18
2019-05-13T20:54:31.338Z,7.72
2019-05-13T20:57:01.768Z,6.17
2019-05-13T20:59:32.006Z,7.75
2019-05-13T21:02:02.321Z,7.45
2019-05-13T21:04:32.168Z,7.40
2019-05-13T21:07:02.055Z,8.83
2019-05-13T21:09:31.663Z,11.63
2019-05-13T21:16:57.678Z,16.02
2019-05-13T21:19:26.265Z,15.05
2019-05-13T21:21:54.830Z,10.38
2019-05-13T21:24:23.462Z,6.57
2019-05-13T21:26:52.099Z,9.65
2019-05-13T21:29:21.591Z,8.50
2019-05-13T21:31:50.445Z,11.38
2019-05-13T21:39:16.970Z,12.85
2019-05-13T21:41:45.553Z,22.10
2019-05-13T21:44:14.109Z,20.20
2019-05-13T21:46:42.690Z,26.70
2019-05-13T21:49:11.928Z,27.20
2019-05-13T21:54:11.761Z,26.65
2019-05-13T21:56:42.656Z,28.75
2019-05-13T21:59:10.954Z,33.42
2019-05-13T22:01:42.094Z,29.25
2019-05-13T22:04:12.124Z,28.80
2019-05-13T22:06:40.501Z,22.85
2019-05-13T22:09:11.683Z,27.05
2019-05-13T22:11:42.072Z,26.02
2019-05-13T22:14:11.298Z,15.68
2019-05-13T22:21:37.450Z,14.18
2019-05-13T22:24:06.009Z,16.77
2019-05-13T22:26:34.590Z,17.10
2019-05-13T22:29:03.337Z,19.57
2019-05-13T22:31:31.981Z,23.25
2019-05-13T22:34:01.463Z,21.87
2019-05-13T22:36:31.793Z,24.50
2019-05-13T22:39:02.094Z,32.58
2019-05-13T22:41:31.289Z,22.37
2019-05-13T22:44:00.133Z,24.85
2019-05-13T22:46:28.837Z,24.52
2019-05-13T22:48:57.623Z,17.77
2019-05-13T22:51:26.179Z,18.20
2019-05-13T22:53:54.774Z,24.07
2019-05-13T22:56:23.384Z,12.83
2019-05-13T22:58:52.117Z,16.82
2019-05-13T23:01:21.818Z,14.28
2019-05-13T23:03:51.464Z,13.53
2019-05-13T23:06:21.596Z,13.03
2019-05-13T23:08:51.329Z,16.57
2019-05-13T23:11:21.931Z,10.95
2019-05-13T23:13:51.325Z,21.07
2019-05-13T23:16:22.180Z,14.58
2019-05-13T23:18:51.309Z,11.50
2019-05-13T23:21:20.137Z,19.45
2019-05-13T23:23:48.696Z,8.53
2019-05-13T23:26:17.398Z,16.83
2019-05-13T23:28:45.983Z,13.25
2019-05-13T23:31:14.675Z,14.80
2019-05-13T23:33:43.321Z,14.28
2019-05-13T23:36:12.161Z,16.17
2019-05-13T23:38:41.337Z,21.87
2019-05-13T23:41:11.435Z,30.30
2019-05-13T23:43:40.561Z,24.45
2019-05-13T23:46:11.557Z,26.65
2019-05-13T23:48:41.194Z,24.63
2019-05-13T23:51:09.707Z,24.52
2019-05-13T23:53:38.303Z,21.95
2019-05-13T23:56:06.970Z,27.15
2019-05-13T23:58:35.530Z,26.65
